createdAt,value
2023-01-26T00:04:40.963Z,55.90
2023-01-26T00:07:09.541Z,39.70
2023-01-26T00:09:38.196Z,36.40
2023-01-26T00:12:06.542Z,37.60
2023-01-26T00:14:50.136Z,33.20
2023-01-26T00:17:26.330Z,28.20
2023-01-26T00:19:58.986Z,35.00
2023-01-26T00:22:30.177Z,30.90
2023-01-26T00:25:01.344Z,27.90
2023-01-26T00:27:32.352Z,26.40
2023-01-26T00:30:02.072Z,32.60
2023-01-26T00:32:36.195Z,21.80
2023-01-26T00:35:05.571Z,34.00
2023-01-26T00:37:33.837Z,33.40
2023-01-26T00:40:01.827Z,29.80
2023-01-26T00:42:30.163Z,28.30
2023-01-26T00:44:58.408Z,35.00
2023-01-26T00:47:26.685Z,30.40
2023-01-26T00:49:54.822Z,31.00
2023-01-26T00:52:23.007Z,30.10
2023-01-26T00:54:51.584Z,30.00
2023-01-26T00:57:19.914Z,27.40
2023-01-26T00:59:48.085Z,26.90
2023-01-26T01:02:16.320Z,34.20
2023-01-26T01:04:44.611Z,30.50
2023-01-26T01:07:13.117Z,28.70
2023-01-26T01:09:41.089Z,27.20
2023-01-26T01:12:09.240Z,25.00
2023-01-26T01:14:38.640Z,26.30
2023-01-26T01:17:06.695Z,29.80
2023-01-26T01:19:38.253Z,28.10
2023-01-26T01:22:07.131Z,27.70
2023-01-26T01:24:35.485Z,33.40
2023-01-26T01:27:03.644Z,30.60
2023-01-26T01:29:31.752Z,30.60
2023-01-26T01:32:00.275Z,26.80
2023-01-26T01:34:29.203Z,29.10
2023-01-26T01:36:58.784Z,33.80
2023-01-26T01:39:27.456Z,33.10
2023-01-26T01:41:55.519Z,31.40
2023-01-26T01:44:25.658Z,30.60
2023-01-26T01:46:57.433Z,32.50
2023-01-26T01:49:28.529Z,30.00
2023-01-26T01:52:10.776Z,57.90
2023-01-26T01:54:44.462Z,33.00
2023-01-26T01:59:52.169Z,36.80
2023-01-26T02:02:20.711Z,37.90
2023-01-26T02:04:49.340Z,39.90
2023-01-26T02:07:17.455Z,28.80
2023-01-26T02:10:04.888Z,38.90
2023-01-26T02:12:33.113Z,37.80
2023-01-26T02:15:01.092Z,36.60
2023-01-26T02:17:30.543Z,35.30
2023-01-26T02:20:07.350Z,35.60
2023-01-26T02:23:02.255Z,45.20
2023-01-26T02:25:30.356Z,35.90
2023-01-26T02:27:58.599Z,38.50
2023-01-26T02:30:27.850Z,39.40
2023-01-26T02:32:55.915Z,38.40
2023-01-26T02:35:26.817Z,37.80
2023-01-26T02:37:55.781Z,41.80
2023-01-26T02:40:40.322Z,41.10
2023-01-26T02:43:08.609Z,39.20
2023-01-26T02:45:38.991Z,42.30
2023-01-26T02:48:09.451Z,39.90
2023-01-26T02:50:37.986Z,39.20
2023-01-26T02:53:06.770Z,39.90
2023-01-26T02:55:34.870Z,38.60
2023-01-26T02:58:04.831Z,40.70
2023-01-26T03:00:37.446Z,36.30
2023-01-26T03:03:12.186Z,39.40
2023-01-26T03:05:42.504Z,41.30
2023-01-26T03:08:10.723Z,44.00
2023-01-26T03:19:04.581Z,36.00
2023-01-26T03:21:52.426Z,43.10
2023-01-26T03:24:49.856Z,56.30
2023-01-26T03:27:26.711Z,49.60
2023-01-26T03:29:58.491Z,42.30
2023-01-26T03:32:30.795Z,48.70
2023-01-26T03:35:01.576Z,54.00
2023-01-26T03:37:36.985Z,49.10
2023-01-26T03:40:30.657Z,46.10
2023-01-26T03:43:17.733Z,45.30
2023-01-26T03:46:04.833Z,44.70
2023-01-26T03:48:52.792Z,44.00
2023-01-26T03:51:39.670Z,43.00
2023-01-26T03:54:26.868Z,39.70
2023-01-26T03:56:55.024Z,37.40
2023-01-26T03:59:38.237Z,44.20
2023-01-26T04:02:31.724Z,41.50
2023-01-26T04:05:19.543Z,47.90
2023-01-26T04:08:09.581Z,47.10
2023-01-26T04:10:37.988Z,40.00
2023-01-26T04:13:28.217Z,67.30
2023-01-26T04:16:20.930Z,50.10
2023-01-26T11:51:10.212Z,33.60
2023-01-26T11:53:52.859Z,26.60
2023-01-26T11:56:49.563Z,29.40
2023-01-26T11:59:36.980Z,34.70
2023-01-26T12:02:21.900Z,29.00
2023-01-26T12:04:52.125Z,35.20
2023-01-26T12:07:58.946Z,32.00
2023-01-26T12:10:55.033Z,27.20
2023-01-26T12:20:49.449Z,31.80
2023-01-26T12:23:30.030Z,25.20
2023-01-26T12:26:04.984Z,34.20
2023-01-26T12:28:54.974Z,31.70
2023-01-26T12:31:27.148Z,33.50
2023-01-26T12:33:56.722Z,39.00
2023-01-26T12:36:55.817Z,39.10
2023-01-26T12:40:07.975Z,31.40
2023-01-26T12:42:42.530Z,43.10
2023-01-26T12:45:18.683Z,41.10
2023-01-26T12:47:56.857Z,38.20
2023-01-26T12:50:31.120Z,39.00
2023-01-26T12:53:06.800Z,43.70
2023-01-26T12:55:44.802Z,42.80
2023-01-26T12:58:18.937Z,40.00
2023-01-26T13:01:05.074Z,39.10
2023-01-26T13:03:59.643Z,40.10
2023-01-26T13:06:28.522Z,39.70
2023-01-26T13:09:20.653Z,40.70
2023-01-26T13:11:54.385Z,36.60
2023-01-26T13:14:25.413Z,38.10
2023-01-26T13:16:55.604Z,43.80
2023-01-26T13:19:48.145Z,36.10
2023-01-26T13:22:19.817Z,39.10
2023-01-26T13:25:08.476Z,33.80
2023-01-26T13:27:54.578Z,30.90
2023-01-26T13:32:54.062Z,43.00
2023-01-26T13:35:25.955Z,38.00
2023-01-26T13:37:58.301Z,34.40
2023-01-26T13:40:43.765Z,35.50
2023-01-26T13:43:27.551Z,35.50
2023-01-26T13:46:09.173Z,37.10
2023-01-26T13:48:46.044Z,34.80
2023-01-26T13:51:32.869Z,29.90
2023-01-26T13:54:13.844Z,29.30
2023-01-26T22:06:49.895Z,42.10
2023-01-26T22:09:21.442Z,39.30
2023-01-26T22:11:51.168Z,36.70
2023-01-26T22:22:33.040Z,38.00
2023-01-26T22:25:01.599Z,35.90
2023-01-26T22:27:30.111Z,35.50
2023-01-26T22:29:58.958Z,41.20
2023-01-26T22:32:27.420Z,38.00
2023-01-26T22:34:55.574Z,37.00
2023-01-26T22:37:24.727Z,38.00
2023-01-26T22:39:52.913Z,33.10
2023-01-26T22:42:21.870Z,37.30
2023-01-26T22:44:50.492Z,37.40
2023-01-26T22:47:19.007Z,39.90
2023-01-26T22:49:47.347Z,40.00
2023-01-26T22:52:16.259Z,33.30
2023-01-26T22:54:45.194Z,38.30
2023-01-26T22:57:15.876Z,33.80
2023-01-26T22:59:44.043Z,43.40
2023-01-26T23:02:15.196Z,47.60
2023-01-26T23:04:43.591Z,38.40
2023-01-26T23:07:11.890Z,36.50
2023-01-26T23:09:39.888Z,43.80
2023-01-26T23:12:08.358Z,45.40
2023-01-26T23:14:36.380Z,41.90
2023-01-26T23:17:05.649Z,40.80
2023-01-26T23:19:34.389Z,37.90
2023-01-26T23:22:02.576Z,45.40
2023-01-26T23:24:30.800Z,51.00
2023-01-26T23:26:58.822Z,42.90
2023-01-26T23:29:27.016Z,45.20
2023-01-26T23:31:55.053Z,49.40
2023-01-26T23:34:23.137Z,51.90
2023-01-26T23:36:51.271Z,49.50
2023-01-26T23:39:21.775Z,57.60
2023-01-26T23:41:49.864Z,50.00
2023-01-26T23:44:20.152Z,54.00
2023-01-26T23:46:48.572Z,51.80
2023-01-26T23:49:16.715Z,54.70
2023-01-26T23:51:44.718Z,52.90
2023-01-26T23:54:12.937Z,49.10
2023-01-26T23:56:40.932Z,52.80
2023-01-26T23:59:08.903Z,54.60
